Thursday, May 24, 2018, 5:45 AM EDT
Back to Local

KMHT, Manchester Airport

Location: Manchester, NH, United States Lat: 42.933
Local Time: 5:45 AM EDT ( 9:45 GMT) Lon: -71.433
Time Zone: US/Eastern Elev: 232 ft

Show me the last for .
Show Coded

Time T Td Feel RH Dir Speed Gust Alt SLP Vis Weather Sky Remarks
2018-05-24 04:53 55 50 - 83 - Calm - 30.03 30.06 10 FEW075 SCT250 None
2018-05-24 03:53 56 50 - 80 - Calm - 30.01 30.04 10 FEW070 SCT250 None
2018-05-24 02:53 59 52 - 77 - Calm - 30.00 30.02 10 FEW070 SCT250 None
2018-05-24 01:53 60 52 - 74 - Calm - 30.00 30.03 10 SCT075 BKN200 6-hr Min Temp (2am): 60.1°F
6-hr Max Temp (2am): 78.1°F
2018-05-24 00:53 62 52 - 69 - Calm - 29.99 30.02 10 FEW070 SCT120 BKN200 24-hr Min Temp (1am): 57.0°F
24-hr Max Temp (1am): 87.1°F
2018-05-23 23:53 64 52 - 64 90° 8 - 29.98 30.01 10 FEW079 SCT120 BKN200 None
2018-05-23 22:53 71 45 - 39 50° 7 - 29.96 29.98 10 FEW070 BKN095 BKN150 None
2018-05-23 21:53 73 45 - 36 350° 8 - 29.94 29.97 10 FEW070 SCT250 None
2018-05-23 20:53 75 47 - 36 360° 12 - 29.91 29.94 10 FEW070 SCT250 Lighting in the vicinity
2018-05-23 19:53 77 54 78 44 360° 20 - 29.88 29.91 10 FEW045 SCT070 BKN100 BKN250 6-hr Precip Total (8pm): 0.02"
6-hr Min Temp (8pm): 75.9°F
6-hr Max Temp (8pm): 87.1°F
2018-05-23 18:53 79 53 79 40 310° 6 - 29.84 29.87 10 FEW035 BKN080 BKN120 BKN250 1-hr Precip Total: 0.02"
2018-05-23 17:53 83 45 - 26 310° 12 17 29.82 29.84 10 SCT090 BKN110 BKN250 None
2018-05-23 16:53 84 42 - 22 320° 14 - 29.81 29.84 10 SCT100 BKN120 None
2018-05-23 15:53 85 45 - 24 320° 12 - 29.81 29.84 10 SCT090 None
2018-05-23 14:53 86 45 - 23 330° 12 20 29.82 29.85 10 SCT080 SCT300 None
2018-05-23 13:53 83 45 - 26 310° 16 23 29.83 29.86 10 FEW065 SCT300 6-hr Min Temp (2pm): 63.0°F
6-hr Max Temp (2pm): 84.0°F
2018-05-23 12:53 80 49 - 33 310° 9 17 29.85 29.88 10 FEW055 FEW250 None
2018-05-23 11:53 76 52 77 43 280° 8 - 29.86 29.89 10 FEW040 FEW250 None
2018-05-23 10:53 72 53 76 51 300° 6 - 29.87 29.90 10 FEW030 SCT250 None
2018-05-23 09:53 70 53 - 55 330° 10 18 29.87 29.90 10 SCT026 SCT045 BKN250 None
2018-05-23 08:53 67 54 - 63 320° 14 - 29.87 29.90 10 SCT021 BKN040 BKN250 None
2018-05-23 07:53 63 54 - 72 320° 6 - 29.86 29.90 10 FEW018 BKN040 BKN070 24-hr Precip Total (8am): 0.06"
6-hr Min Temp (8am): 57.0°F
6-hr Max Temp (8am): 63.0°F
2018-05-23 06:53 59 53 - 80 280° 3 - 29.86 29.90 10 SCT018 BKN030 BKN065 None
2018-05-23 05:53 58 52 - 80 150° 3 - 29.86 29.89 10 SCT014 BKN021 OVC065 None

Support USWX by starting your Amazon purchase here.